createdAt,value
2023-05-05T00:00:53.354Z,993.87
2023-05-05T00:01:53.376Z,993.82
2023-05-05T00:02:53.363Z,993.80
2023-05-05T00:03:53.364Z,993.73
2023-05-05T00:04:53.311Z,993.77
2023-05-05T00:05:53.299Z,993.71
2023-05-05T00:06:53.288Z,993.75
2023-05-05T00:07:53.317Z,993.77
2023-05-05T00:08:53.262Z,993.83
2023-05-05T00:09:53.248Z,993.88
2023-05-05T00:10:53.266Z,993.73
2023-05-05T00:11:53.246Z,993.69
2023-05-05T00:12:53.288Z,993.61
2023-05-05T00:13:53.210Z,993.74
2023-05-05T00:14:53.192Z,993.70
2023-05-05T00:15:53.185Z,993.77
2023-05-05T00:16:53.219Z,993.68
2023-05-05T00:17:53.406Z,993.66
2023-05-05T00:18:53.149Z,993.66
2023-05-05T00:19:53.156Z,993.64
2023-05-05T00:20:53.150Z,993.63
2023-05-05T00:21:53.142Z,993.69
2023-05-05T00:22:53.130Z,993.65
2023-05-05T00:23:53.097Z,993.67
2023-05-05T00:24:53.083Z,993.56
2023-05-05T00:25:53.084Z,993.53
2023-05-05T00:26:53.082Z,993.63
2023-05-05T00:27:53.077Z,993.57
2023-05-05T00:28:53.061Z,993.52
2023-05-05T00:29:53.045Z,993.50
2023-05-05T00:30:53.104Z,993.55
2023-05-05T00:31:53.041Z,993.64
2023-05-05T00:32:53.019Z,993.64
2023-05-05T00:33:53.016Z,993.63
2023-05-05T00:34:53.005Z,993.57
2023-05-05T00:35:52.994Z,993.56
2023-05-05T00:36:52.983Z,993.46
2023-05-05T00:37:52.967Z,993.48
2023-05-05T00:38:52.952Z,993.52
2023-05-05T00:39:52.958Z,993.51
2023-05-05T00:40:52.934Z,993.52
2023-05-05T00:41:52.933Z,993.42
2023-05-05T00:42:52.915Z,993.48
2023-05-05T00:43:52.913Z,993.44
2023-05-05T00:44:52.905Z,993.54
2023-05-05T00:45:52.882Z,993.39
2023-05-05T00:46:52.878Z,993.51
2023-05-05T00:47:52.873Z,993.41
2023-05-05T00:48:52.860Z,993.43
2023-05-05T00:49:52.862Z,993.45
2023-05-05T00:50:52.836Z,993.46
2023-05-05T00:51:52.820Z,993.43
2023-05-05T00:52:52.815Z,993.41
2023-05-05T00:53:52.821Z,993.44
2023-05-05T00:54:52.810Z,993.42
2023-05-05T00:55:52.791Z,993.37
2023-05-05T00:56:52.783Z,993.38
2023-05-05T00:57:52.780Z,993.34
2023-05-05T00:58:52.772Z,993.43
2023-05-05T00:59:52.760Z,993.44
2023-05-05T01:00:52.739Z,993.41
2023-05-05T01:01:52.777Z,993.42
2023-05-05T01:02:52.926Z,993.34
2023-05-05T01:03:52.884Z,993.45
2023-05-05T01:04:52.731Z,993.44
2023-05-05T01:05:52.690Z,993.35
2023-05-05T01:06:52.684Z,993.38
2023-05-05T01:07:52.676Z,993.29
2023-05-05T01:08:52.666Z,993.38
2023-05-05T01:10:04.166Z,993.36
2023-05-05T01:10:54.631Z,993.35
2023-05-05T01:11:52.628Z,993.29
2023-05-05T01:12:52.665Z,993.34
2023-05-05T01:13:52.607Z,993.32
2023-05-05T01:14:52.595Z,993.31
2023-05-05T01:15:52.603Z,993.31
2023-05-05T01:16:52.578Z,993.34
2023-05-05T01:17:52.628Z,993.34
2023-05-05T01:18:52.549Z,993.42
2023-05-05T01:19:52.571Z,993.35
2023-05-05T01:20:52.533Z,993.36
2023-05-05T01:21:52.528Z,993.38
2023-05-05T01:22:52.522Z,993.32
2023-05-05T01:23:52.525Z,993.32
2023-05-05T01:24:52.489Z,993.33
2023-05-05T01:25:52.481Z,993.29
2023-05-05T01:26:52.485Z,993.31
2023-05-05T01:27:52.472Z,993.29
2023-05-05T01:28:52.445Z,993.34
2023-05-05T01:29:53.444Z,993.25
2023-05-05T01:30:52.432Z,993.39
2023-05-05T01:31:52.457Z,993.36
2023-05-05T01:32:52.429Z,993.40
2023-05-05T01:33:52.398Z,993.45
2023-05-05T01:34:52.391Z,993.34
2023-05-05T01:35:52.385Z,993.27
2023-05-05T01:36:52.377Z,993.29
2023-05-05T01:37:52.355Z,993.28
2023-05-05T01:38:52.349Z,993.20
2023-05-05T01:39:52.345Z,993.22
2023-05-05T01:40:52.336Z,993.28
2023-05-05T01:41:52.318Z,993.25
2023-05-05T01:42:53.310Z,993.29
2023-05-05T01:43:52.298Z,993.19
2023-05-05T01:44:52.277Z,993.17
2023-05-05T01:45:52.290Z,993.20
2023-05-05T01:46:52.257Z,993.18
2023-05-05T01:47:52.296Z,993.19
2023-05-05T01:48:52.242Z,993.20
2023-05-05T01:49:52.225Z,993.20
2023-05-05T01:50:52.246Z,993.14
2023-05-05T01:51:52.218Z,993.19
2023-05-05T01:52:52.193Z,993.19
2023-05-05T01:53:52.193Z,993.18
2023-05-05T01:54:52.203Z,993.17
2023-05-05T01:55:52.184Z,993.18
2023-05-05T01:56:52.157Z,993.21
2023-05-05T01:57:52.150Z,993.16
2023-05-05T01:58:52.141Z,993.24
2023-05-05T01:59:52.150Z,993.19
2023-05-05T02:00:52.124Z,993.17
2023-05-05T02:01:52.114Z,993.17
2023-05-05T02:02:52.150Z,993.15
2023-05-05T02:03:52.085Z,993.16
2023-05-05T02:04:52.104Z,993.19
2023-05-05T02:05:52.065Z,993.11
2023-05-05T02:06:52.066Z,993.14
2023-05-05T02:07:52.049Z,993.09
2023-05-05T02:08:52.044Z,993.11
2023-05-05T02:09:52.030Z,993.11
2023-05-05T02:10:52.021Z,993.14
2023-05-05T02:11:52.007Z,993.16
2023-05-05T02:12:52.010Z,993.14
2023-05-05T02:13:52.072Z,993.23
2023-05-05T02:14:51.982Z,993.20
2023-05-05T02:15:52.001Z,993.27
2023-05-05T02:16:51.961Z,993.14
2023-05-05T02:17:51.991Z,993.16
2023-05-05T02:18:52.950Z,993.12
2023-05-05T02:19:51.936Z,993.12
2023-05-05T02:20:51.918Z,993.16
2023-05-05T02:21:51.926Z,993.13
2023-05-05T02:22:51.909Z,993.11
2023-05-05T02:23:52.089Z,993.07
2023-05-05T02:24:51.881Z,993.01
2023-05-05T02:25:51.884Z,992.96
2023-05-05T02:26:51.879Z,992.95
2023-05-05T02:27:51.871Z,993.05
2023-05-05T02:28:51.860Z,993.01
2023-05-05T02:29:51.839Z,993.16
2023-05-05T02:30:51.838Z,993.09
2023-05-05T02:31:51.854Z,993.03
2023-05-05T02:32:51.883Z,993.06
2023-05-05T02:33:51.795Z,993.00
2023-05-05T02:34:51.788Z,993.13
2023-05-05T02:35:51.775Z,992.98
2023-05-05T02:36:51.765Z,992.96
2023-05-05T02:37:51.769Z,993.00
2023-05-05T02:38:51.745Z,992.94
2023-05-05T02:39:51.736Z,992.99
2023-05-05T02:40:51.723Z,992.97
2023-05-05T02:41:51.724Z,993.05
2023-05-05T02:42:51.794Z,992.96
2023-05-05T02:43:51.694Z,993.00
2023-05-05T02:44:51.680Z,992.98
2023-05-05T02:45:51.676Z,992.92
2023-05-05T02:46:51.714Z,992.97
2023-05-05T02:47:51.700Z,993.01
2023-05-05T02:48:51.650Z,993.02
2023-05-05T02:49:51.639Z,993.04
2023-05-05T02:50:51.635Z,993.00
2023-05-05T02:51:51.617Z,993.00
2023-05-05T02:52:51.602Z,993.02
2023-05-05T02:53:51.595Z,993.09
2023-05-05T02:54:51.588Z,993.12
2023-05-05T02:55:51.589Z,993.13
2023-05-05T02:56:51.587Z,993.12
2023-05-05T02:57:51.562Z,993.17
2023-05-05T02:58:51.538Z,993.00
2023-05-05T02:59:51.547Z,993.04
2023-05-05T03:00:51.529Z,993.01
2023-05-05T03:01:51.577Z,992.96
2023-05-05T03:02:52.591Z,992.98
2023-05-05T03:03:51.609Z,993.02
2023-05-05T03:04:51.474Z,993.04
2023-05-05T03:05:51.507Z,992.93
2023-05-05T03:06:51.467Z,992.98
2023-05-05T03:07:51.450Z,993.01
2023-05-05T03:08:51.432Z,992.95
2023-05-05T03:09:51.430Z,993.06
2023-05-05T03:10:51.429Z,992.96
2023-05-05T03:11:51.413Z,993.00
2023-05-05T03:12:51.441Z,992.93
2023-05-05T03:13:51.384Z,992.93
2023-05-05T03:14:52.371Z,992.88
2023-05-05T03:15:51.435Z,992.93
2023-05-05T03:16:51.375Z,992.86
2023-05-05T03:17:51.377Z,992.97
2023-05-05T03:18:51.357Z,993.02
2023-05-05T03:19:51.336Z,992.95
2023-05-05T03:20:51.317Z,992.99
2023-05-05T03:21:51.314Z,993.01
2023-05-05T03:22:51.297Z,992.98
2023-05-05T03:23:51.290Z,992.99
2023-05-05T03:24:51.287Z,992.95
2023-05-05T03:25:51.262Z,992.93
2023-05-05T03:26:51.250Z,992.91
2023-05-05T03:27:51.237Z,992.90
2023-05-05T03:28:51.237Z,992.92
2023-05-05T03:29:51.226Z,992.96
2023-05-05T03:30:51.204Z,992.95
2023-05-05T03:31:51.240Z,992.98
2023-05-05T03:32:52.229Z,992.93
2023-05-05T03:33:51.194Z,992.98
2023-05-05T03:34:51.176Z,992.97
2023-05-05T03:35:51.158Z,993.04
2023-05-05T03:36:51.143Z,992.98
2023-05-05T03:37:51.135Z,993.01
2023-05-05T03:38:51.148Z,992.97
2023-05-05T03:39:51.118Z,993.01
2023-05-05T03:40:51.119Z,992.94
2023-05-05T03:41:51.089Z,992.97
2023-05-05T03:42:51.082Z,992.94
2023-05-05T03:43:51.084Z,992.98
2023-05-05T03:44:51.081Z,992.96
2023-05-05T03:45:51.078Z,992.87
2023-05-05T03:46:51.050Z,992.92
2023-05-05T03:47:51.114Z,992.95
2023-05-05T03:48:51.033Z,992.93
2023-05-05T03:49:50.999Z,992.90
2023-05-05T03:50:52.002Z,992.91
2023-05-05T03:51:50.985Z,992.90
2023-05-05T03:52:50.998Z,992.84
2023-05-05T03:53:50.966Z,992.86
2023-05-05T03:54:50.958Z,992.88
2023-05-05T03:55:50.967Z,992.90
2023-05-05T03:56:50.938Z,992.86
2023-05-05T03:57:50.946Z,992.89
2023-05-05T03:58:50.910Z,992.85
2023-05-05T03:59:50.926Z,992.83
2023-05-05T04:00:50.902Z,992.83
2023-05-05T04:01:50.889Z,992.81
2023-05-05T04:02:50.953Z,992.91
2023-05-05T04:03:50.905Z,992.90
2023-05-05T04:04:50.876Z,992.90
2023-05-05T04:05:50.854Z,992.96
2023-05-05T04:06:50.853Z,993.04
2023-05-05T04:07:50.830Z,992.98
2023-05-05T04:08:50.817Z,992.97
2023-05-05T04:09:50.808Z,993.07
2023-05-05T04:10:50.793Z,993.02
2023-05-05T04:11:50.828Z,993.00
2023-05-05T04:12:50.830Z,992.95
2023-05-05T04:13:50.835Z,992.97
2023-05-05T04:14:50.765Z,992.99
2023-05-05T04:15:50.792Z,992.99
2023-05-05T04:16:50.762Z,993.01
2023-05-05T04:17:50.745Z,992.95
2023-05-05T04:18:50.718Z,993.00
2023-05-05T04:19:50.701Z,993.00
2023-05-05T04:20:50.708Z,993.03
2023-05-05T04:21:50.710Z,992.99
2023-05-05T04:22:52.653Z,993.02
2023-05-05T04:23:51.669Z,993.00
2023-05-05T04:24:50.654Z,992.95
2023-05-05T04:25:50.648Z,992.95
2023-05-05T04:26:50.636Z,993.08
2023-05-05T04:27:50.638Z,993.01
2023-05-05T04:28:50.612Z,993.00
2023-05-05T04:29:50.606Z,993.06
2023-05-05T04:30:50.612Z,993.00
2023-05-05T04:31:50.626Z,993.01
2023-05-05T04:32:50.620Z,993.00
2023-05-05T04:33:50.560Z,993.10
2023-05-05T04:34:50.560Z,993.06
2023-05-05T04:35:50.558Z,993.00
2023-05-05T04:36:50.533Z,993.04
2023-05-05T04:37:50.511Z,993.03
2023-05-05T04:38:50.549Z,993.11
2023-05-05T04:39:50.515Z,993.11
2023-05-05T04:40:50.494Z,993.12
2023-05-05T04:41:50.479Z,993.16
2023-05-05T04:42:50.484Z,993.19
2023-05-05T04:43:50.464Z,993.25
2023-05-05T04:44:50.457Z,993.28
2023-05-05T04:45:50.435Z,993.31
2023-05-05T04:46:50.507Z,993.33
2023-05-05T04:47:50.436Z,993.33
2023-05-05T04:48:50.417Z,993.32
2023-05-05T04:49:50.403Z,993.43
2023-05-05T04:50:50.385Z,993.40
2023-05-05T04:51:50.382Z,993.36
2023-05-05T04:52:52.459Z,993.38
2023-05-05T04:53:51.379Z,993.25
2023-05-05T04:54:50.350Z,993.29
2023-05-05T04:55:50.341Z,993.26
2023-05-05T04:56:50.353Z,993.25
2023-05-05T04:57:50.347Z,993.32
2023-05-05T04:58:50.422Z,993.21
2023-05-05T04:59:50.333Z,993.30
2023-05-05T05:00:50.345Z,993.34
2023-05-05T05:01:50.427Z,993.36
2023-05-05T05:02:50.407Z,993.33
2023-05-05T05:03:50.341Z,993.24
2023-05-05T05:04:50.290Z,993.25
2023-05-05T05:05:50.267Z,993.24
2023-05-05T05:08:16.311Z,993.22
2023-05-05T05:09:16.620Z,993.22
2023-05-05T05:10:16.491Z,993.25
2023-05-05T05:11:16.269Z,993.25
2023-05-05T05:12:16.294Z,993.26
2023-05-05T05:13:16.269Z,993.27
2023-05-05T05:14:16.241Z,993.32
2023-05-05T05:15:16.234Z,993.32
2023-05-05T05:16:16.253Z,993.27
2023-05-05T05:17:16.231Z,993.35
2023-05-05T05:18:16.198Z,993.24
2023-05-05T05:19:16.188Z,993.26
2023-05-05T05:20:16.250Z,993.32
2023-05-05T05:21:22.926Z,993.29
2023-05-05T05:22:16.167Z,993.39
2023-05-05T05:23:16.142Z,993.52
2023-05-05T05:24:16.186Z,993.41
2023-05-05T05:25:16.122Z,993.36
2023-05-05T05:26:16.144Z,993.28
2023-05-05T05:27:16.136Z,993.35
2023-05-05T05:28:16.097Z,993.31
2023-05-05T05:29:16.104Z,993.28
2023-05-05T05:30:16.137Z,993.28
2023-05-05T05:31:16.095Z,993.22
2023-05-05T05:32:16.202Z,993.29
2023-05-05T05:33:16.063Z,993.27
2023-05-05T05:34:16.075Z,993.25
2023-05-05T05:35:16.018Z,993.30
2023-05-05T05:36:16.027Z,993.23
2023-05-05T05:37:16.004Z,993.22
2023-05-05T05:38:16.006Z,993.25
2023-05-05T05:39:15.977Z,993.23
2023-05-05T05:40:16.027Z,993.26
2023-05-05T05:41:15.975Z,993.20
2023-05-05T05:42:15.943Z,993.26
2023-05-05T05:43:15.927Z,993.24
2023-05-05T05:44:15.931Z,993.32
2023-05-05T05:45:15.925Z,993.32
2023-05-05T05:46:15.941Z,993.31
2023-05-05T05:47:15.877Z,993.30
2023-05-05T05:48:15.880Z,993.36
2023-05-05T05:49:15.873Z,993.32
2023-05-05T05:50:15.873Z,993.34
2023-05-05T05:51:15.839Z,993.35
2023-05-05T05:52:15.832Z,993.41
2023-05-05T05:53:15.816Z,993.38
2023-05-05T05:54:15.821Z,993.36
2023-05-05T05:55:15.830Z,993.40
2023-05-05T05:56:15.828Z,993.33
2023-05-05T05:57:15.800Z,993.36
2023-05-05T05:58:15.762Z,993.35
2023-05-05T05:59:15.747Z,993.37
2023-05-05T06:00:15.778Z,993.36
2023-05-05T06:01:15.734Z,993.36
2023-05-05T06:02:15.733Z,993.39
2023-05-05T06:03:16.631Z,993.38
2023-05-05T06:04:15.758Z,993.47
2023-05-05T06:05:15.694Z,993.41
2023-05-05T06:06:15.676Z,993.35
2023-05-05T06:07:15.659Z,993.35
2023-05-05T06:08:15.659Z,993.38
2023-05-05T06:09:15.651Z,993.32
2023-05-05T06:10:27.290Z,993.38
2023-05-05T06:11:16.657Z,993.32
2023-05-05T06:12:15.689Z,993.31
2023-05-05T06:13:15.680Z,993.33
2023-05-05T06:14:16.322Z,993.33
2023-05-05T06:15:15.582Z,993.34
2023-05-05T06:16:15.616Z,993.43
2023-05-05T06:17:15.572Z,993.39
2023-05-05T06:18:15.633Z,993.37
2023-05-05T06:19:15.590Z,993.36
2023-05-05T06:20:15.533Z,993.34
2023-05-05T06:21:15.507Z,993.31
2023-05-05T06:22:15.498Z,993.30
2023-05-05T06:23:15.507Z,993.30
2023-05-05T06:24:15.497Z,993.38
2023-05-05T06:25:15.463Z,993.30
2023-05-05T06:26:15.464Z,993.29
2023-05-05T06:27:15.450Z,993.30
2023-05-05T06:28:15.448Z,993.31
2023-05-05T06:29:15.428Z,993.27
2023-05-05T06:30:15.420Z,993.31
2023-05-05T06:31:15.438Z,993.28
2023-05-05T06:32:15.408Z,993.31
2023-05-05T06:33:15.400Z,993.26
2023-05-05T06:34:15.436Z,993.29
2023-05-05T06:35:15.362Z,993.31
2023-05-05T06:36:15.372Z,993.36
2023-05-05T06:37:15.354Z,993.26
2023-05-05T06:38:15.332Z,993.31
2023-05-05T06:39:16.176Z,993.25
2023-05-05T06:40:15.320Z,993.27
2023-05-05T06:41:15.302Z,993.31
2023-05-05T06:42:15.309Z,993.27
2023-05-05T06:43:15.287Z,993.35
2023-05-05T06:44:15.272Z,993.29
2023-05-05T06:45:15.254Z,993.29
2023-05-05T06:46:15.359Z,993.42
2023-05-05T06:47:15.244Z,993.27
2023-05-05T06:48:15.239Z,993.27
2023-05-05T06:49:15.218Z,993.31
2023-05-05T06:50:15.208Z,993.32
2023-05-05T06:51:15.201Z,993.38
2023-05-05T06:52:16.007Z,993.34
2023-05-05T06:53:15.219Z,993.30
2023-05-05T06:54:15.207Z,993.29
2023-05-05T06:55:15.156Z,993.33
2023-05-05T06:56:15.156Z,993.33
2023-05-05T06:57:15.149Z,993.26
2023-05-05T06:58:15.159Z,993.30
2023-05-05T06:59:15.124Z,993.25
2023-05-05T07:00:15.191Z,993.19
2023-05-05T07:01:15.223Z,993.14
2023-05-05T07:02:15.083Z,993.08
2023-05-05T07:03:15.178Z,993.16
2023-05-05T07:04:18.414Z,993.13
2023-05-05T07:05:15.082Z,993.19
2023-05-05T07:06:15.091Z,993.22
2023-05-05T07:07:15.030Z,993.22
2023-05-05T07:08:15.009Z,993.25
2023-05-05T07:09:17.037Z,993.24
2023-05-05T07:10:15.044Z,993.29
2023-05-05T07:11:14.987Z,993.21
2023-05-05T07:12:14.977Z,993.29
2023-05-05T07:13:15.007Z,993.33
2023-05-05T07:14:14.950Z,993.28
2023-05-05T07:15:27.951Z,993.28
2023-05-05T07:16:15.945Z,993.23
2023-05-05T07:17:14.919Z,993.24
2023-05-05T07:18:14.904Z,993.26
2023-05-05T07:19:14.905Z,993.22
2023-05-05T07:20:14.888Z,993.21
2023-05-05T07:21:14.883Z,993.27
2023-05-05T07:22:15.797Z,993.32
2023-05-05T07:24:15.944Z,993.20
2023-05-05T07:25:14.893Z,993.27
2023-05-05T07:26:16.025Z,993.29
2023-05-05T07:28:10.548Z,993.22
2023-05-05T07:28:15.983Z,993.23
2023-05-05T07:29:15.939Z,993.24
2023-05-05T07:30:18.396Z,993.31
2023-05-05T07:31:17.137Z,993.24
2023-05-05T07:32:16.018Z,993.16
2023-05-05T07:33:15.910Z,993.22
2023-05-05T07:34:18.952Z,993.17
2023-05-05T07:35:15.968Z,993.17
2023-05-05T07:36:15.838Z,993.21
2023-05-05T07:37:15.828Z,993.22
2023-05-05T07:38:15.828Z,993.21
2023-05-05T07:39:15.968Z,993.20
2023-05-05T07:40:19.509Z,993.14
2023-05-05T07:41:15.836Z,993.19
2023-05-05T07:42:30.510Z,993.31
2023-05-05T07:43:15.806Z,993.16
2023-05-05T07:44:49.538Z,993.13
2023-05-05T07:45:15.869Z,993.19
2023-05-05T07:46:15.758Z,993.20
2023-05-05T07:47:15.857Z,993.21
2023-05-05T07:48:15.730Z,993.18
2023-05-05T07:49:15.802Z,993.21
2023-05-05T07:50:15.707Z,993.24
2023-05-05T07:51:15.863Z,993.25
2023-05-05T07:52:15.747Z,993.31
2023-05-05T07:53:15.816Z,993.29
2023-05-05T07:54:15.667Z,993.27
2023-05-05T07:55:15.704Z,993.29
2023-05-05T07:56:15.669Z,993.37
2023-05-05T07:57:15.726Z,993.26
2023-05-05T07:58:15.679Z,993.26
2023-05-05T07:59:15.720Z,993.28
2023-05-05T08:00:15.628Z,993.22
2023-05-05T08:01:15.627Z,993.22
2023-05-05T08:02:15.620Z,993.24
2023-05-05T08:03:15.698Z,993.30
2023-05-05T08:04:15.688Z,993.22
2023-05-05T08:05:15.565Z,993.28
2023-05-05T08:06:15.564Z,993.29
2023-05-05T08:07:15.522Z,993.24
2023-05-05T08:08:15.592Z,993.15
2023-05-05T08:09:15.502Z,993.16
2023-05-05T08:10:15.534Z,993.15
2023-05-05T08:11:15.512Z,993.15
2023-05-05T08:12:15.470Z,993.08
2023-05-05T08:13:15.542Z,993.14
2023-05-05T08:14:15.659Z,993.08
2023-05-05T08:15:15.467Z,993.13
2023-05-05T08:16:16.700Z,993.15
2023-05-05T08:17:17.495Z,993.16
2023-05-05T08:18:15.439Z,993.22
2023-05-05T08:19:27.602Z,993.17
2023-05-05T08:20:17.550Z,993.21
2023-05-05T08:21:19.607Z,993.19
2023-05-05T08:22:15.513Z,993.17
2023-05-05T08:23:18.060Z,993.20
2023-05-05T08:24:15.555Z,993.18
2023-05-05T08:25:15.461Z,993.16
2023-05-05T08:26:15.414Z,993.16
2023-05-05T08:27:15.418Z,993.14
2023-05-05T08:28:19.020Z,993.10
2023-05-05T08:29:15.415Z,993.10
2023-05-05T08:30:15.477Z,993.13
2023-05-05T08:31:20.573Z,993.03
2023-05-05T08:32:15.547Z,993.12
2023-05-05T08:33:15.464Z,993.12
2023-05-05T08:34:15.363Z,993.11
2023-05-05T08:35:15.479Z,993.10
2023-05-05T08:36:15.344Z,993.15
2023-05-05T08:37:15.352Z,993.12
2023-05-05T08:38:15.357Z,993.16
2023-05-05T08:39:15.297Z,993.11
2023-05-05T08:40:15.262Z,993.12
2023-05-05T08:41:15.247Z,993.11
2023-05-05T08:42:25.483Z,993.09
2023-05-05T08:43:17.292Z,993.11
2023-05-05T08:44:15.245Z,993.14
2023-05-05T08:45:15.232Z,993.07
2023-05-05T08:46:15.269Z,993.09
2023-05-05T08:47:15.209Z,993.10
2023-05-05T08:48:15.307Z,993.13
2023-05-05T08:49:25.491Z,993.11
2023-05-05T08:50:17.431Z,993.11
2023-05-05T08:51:15.281Z,993.12
2023-05-05T08:52:15.188Z,993.11
2023-05-05T08:53:15.341Z,993.14
2023-05-05T08:54:15.191Z,993.15
2023-05-05T08:55:15.141Z,993.12
2023-05-05T08:56:15.187Z,993.22
2023-05-05T08:57:15.382Z,993.13
2023-05-05T08:58:17.008Z,993.20
2023-05-05T08:59:15.692Z,993.17
2023-05-05T09:00:15.614Z,993.18
2023-05-05T09:01:15.082Z,993.12
2023-05-05T09:02:16.937Z,993.10
2023-05-05T09:03:15.249Z,993.11
2023-05-05T09:04:15.049Z,993.06
2023-05-05T09:05:15.065Z,993.07
2023-05-05T09:06:15.142Z,993.13
2023-05-05T09:07:15.129Z,993.13
2023-05-05T09:08:15.008Z,993.09
2023-05-05T09:09:15.056Z,993.13
2023-05-05T09:10:16.064Z,993.16
2023-05-05T09:11:15.018Z,993.16
2023-05-05T09:12:15.027Z,993.16
2023-05-05T09:13:15.064Z,993.19
2023-05-05T09:14:14.994Z,993.18
2023-05-05T09:15:15.091Z,993.16
2023-05-05T09:16:15.041Z,993.17
2023-05-05T09:17:14.938Z,993.17
2023-05-05T09:18:14.923Z,993.18
2023-05-05T09:19:15.059Z,993.25
2023-05-05T09:20:14.984Z,993.17
2023-05-05T09:21:15.117Z,993.10
2023-05-05T09:22:14.920Z,993.14
2023-05-05T09:23:14.931Z,993.09
2023-05-05T09:24:14.878Z,993.11
2023-05-05T09:25:14.971Z,993.17
2023-05-05T09:26:14.912Z,993.13
2023-05-05T09:27:14.886Z,993.16
2023-05-05T09:28:14.872Z,993.23
2023-05-05T09:29:14.852Z,993.19
2023-05-05T09:30:14.782Z,993.16
2023-05-05T09:31:14.758Z,993.15
2023-05-05T09:32:14.731Z,993.14
2023-05-05T09:33:14.743Z,993.16
2023-05-05T09:34:14.712Z,993.17
2023-05-05T09:35:17.853Z,993.17
2023-05-05T09:36:14.717Z,993.19
2023-05-05T09:38:38.645Z,993.15
2023-05-05T09:38:46.765Z,993.16
2023-05-05T09:39:40.192Z,993.16
2023-05-05T09:40:40.249Z,993.13
2023-05-05T09:41:40.203Z,993.12
2023-05-05T09:42:40.181Z,993.14
2023-05-05T09:43:40.210Z,993.11
2023-05-05T09:44:40.242Z,993.16
2023-05-05T09:45:40.136Z,993.17
2023-05-05T09:46:40.244Z,993.08
2023-05-05T09:47:40.129Z,993.13
2023-05-05T09:48:40.204Z,993.13
2023-05-05T09:49:40.144Z,993.14
2023-05-05T09:50:40.099Z,993.16
2023-05-05T09:51:40.077Z,993.20
2023-05-05T09:52:40.120Z,993.16
2023-05-05T09:53:40.116Z,993.15
2023-05-05T09:54:40.122Z,993.12
2023-05-05T09:55:40.111Z,993.12
2023-05-05T09:56:40.013Z,993.14
2023-05-05T09:57:40.153Z,993.17
2023-05-05T09:58:40.152Z,993.10
2023-05-05T09:59:40.057Z,993.09
2023-05-05T10:00:40.868Z,993.17
2023-05-05T10:01:39.985Z,993.13
2023-05-05T10:02:40.035Z,993.11
2023-05-05T10:03:39.906Z,993.15
2023-05-05T10:04:39.936Z,993.12
2023-05-05T10:05:39.903Z,993.13
2023-05-05T10:06:39.924Z,993.09
2023-05-05T10:07:39.883Z,993.12
2023-05-05T10:08:39.891Z,993.12
2023-05-05T10:09:39.851Z,993.11
2023-05-05T10:10:39.964Z,993.11
2023-05-05T10:11:39.852Z,993.02
2023-05-05T10:12:39.853Z,993.00
2023-05-05T10:13:39.815Z,993.00
2023-05-05T10:14:39.774Z,992.99
2023-05-05T10:15:39.792Z,992.91
2023-05-05T10:16:39.808Z,992.92
2023-05-05T10:17:42.513Z,992.94
2023-05-05T10:18:40.779Z,992.92
2023-05-05T10:19:39.776Z,992.93
2023-05-05T10:20:39.745Z,992.93
2023-05-05T10:21:41.470Z,992.93
2023-05-05T10:22:40.698Z,992.82
2023-05-05T10:23:39.702Z,992.81
2023-05-05T10:24:39.729Z,992.84
2023-05-05T10:25:39.685Z,992.88
2023-05-05T10:26:39.857Z,992.80
2023-05-05T10:27:39.661Z,992.78
2023-05-05T10:28:39.695Z,992.75
2023-05-05T10:29:39.664Z,992.71
2023-05-05T10:30:39.629Z,992.69
2023-05-05T10:31:46.700Z,992.62
2023-05-05T10:33:40.658Z,992.63
2023-05-05T10:34:39.651Z,992.68
2023-05-05T10:38:31.597Z,992.59
2023-05-05T10:39:31.585Z,992.57
2023-05-05T10:40:31.601Z,992.58
2023-05-05T10:41:37.429Z,992.56
2023-05-05T10:42:31.636Z,992.55
2023-05-05T10:43:31.589Z,992.56
2023-05-05T10:44:31.535Z,992.56
2023-05-05T10:45:31.618Z,992.54
2023-05-05T10:46:31.836Z,992.45
2023-05-05T10:47:31.620Z,992.51
2023-05-05T10:48:31.509Z,992.47
2023-05-05T10:49:31.521Z,992.48
2023-05-05T10:50:31.488Z,992.54
2023-05-05T10:51:39.920Z,992.53
2023-05-05T10:52:32.457Z,992.55
2023-05-05T10:53:31.466Z,992.57
2023-05-05T10:54:31.481Z,992.54
2023-05-05T10:55:31.438Z,992.52
2023-05-05T10:56:31.517Z,992.51
2023-05-05T10:59:00.511Z,992.46
2023-05-05T10:59:57.450Z,992.46
2023-05-05T11:00:57.459Z,992.40
2023-05-05T11:01:57.420Z,992.37
2023-05-05T11:02:57.537Z,992.41
2023-05-05T11:03:57.472Z,992.38
2023-05-05T11:04:57.396Z,992.39
2023-05-05T11:05:57.380Z,992.33
2023-05-05T11:06:57.373Z,992.32
2023-05-05T11:07:57.375Z,992.36
2023-05-05T11:08:57.354Z,992.33
2023-05-05T11:09:57.377Z,992.32
2023-05-05T11:10:57.317Z,992.34
2023-05-05T11:11:57.315Z,992.34
2023-05-05T11:12:57.373Z,992.29
2023-05-05T11:13:57.324Z,992.31
2023-05-05T11:14:57.362Z,992.23
2023-05-05T11:15:57.280Z,992.21
2023-05-05T11:16:57.313Z,992.19
2023-05-05T11:17:57.422Z,992.09
2023-05-05T11:18:57.251Z,992.20
2023-05-05T11:19:57.235Z,992.12
2023-05-05T11:20:57.223Z,992.17
2023-05-05T11:21:57.211Z,992.20
2023-05-05T11:22:57.222Z,992.12
2023-05-05T11:23:57.190Z,992.17
2023-05-05T11:24:57.178Z,992.18
2023-05-05T11:25:57.170Z,992.19
2023-05-05T11:26:57.154Z,992.05
2023-05-05T11:27:57.157Z,992.07
2023-05-05T11:28:57.148Z,992.11
2023-05-05T11:29:57.136Z,992.08
2023-05-05T11:30:58.041Z,992.05
2023-05-05T11:31:57.132Z,992.04
2023-05-05T11:32:57.149Z,992.06
2023-05-05T11:33:57.105Z,992.07
2023-05-05T11:34:57.086Z,992.04
2023-05-05T11:35:57.089Z,992.06
2023-05-05T11:36:57.074Z,992.05
2023-05-05T11:38:11.543Z,992.01
2023-05-05T11:38:57.066Z,991.97
2023-05-05T11:39:57.037Z,992.03
2023-05-05T11:40:57.053Z,991.95
2023-05-05T11:41:57.031Z,991.88
2023-05-05T11:42:56.994Z,991.87
2023-05-05T11:44:03.528Z,991.91
2023-05-05T11:44:56.989Z,991.96
2023-05-05T11:45:57.012Z,991.90
2023-05-05T11:46:57.180Z,991.90
2023-05-05T11:47:57.090Z,991.85
2023-05-05T11:48:56.948Z,991.89
2023-05-05T11:49:56.945Z,991.87
2023-05-05T11:50:56.934Z,991.85
2023-05-05T11:51:56.930Z,991.84
2023-05-05T11:52:56.901Z,991.83
2023-05-05T11:53:58.512Z,991.84
2023-05-05T11:54:56.888Z,991.79
2023-05-05T11:55:56.890Z,991.78
2023-05-05T11:56:56.864Z,991.74
2023-05-05T11:57:56.886Z,991.79
2023-05-05T11:58:57.501Z,991.81
2023-05-05T11:59:56.952Z,991.71
2023-05-05T12:00:56.912Z,991.83
2023-05-05T12:01:56.811Z,991.84
2023-05-05T12:02:56.956Z,991.84
2023-05-05T12:03:57.001Z,991.85
2023-05-05T12:04:56.908Z,991.80
2023-05-05T12:05:56.799Z,991.84
2023-05-05T12:06:56.762Z,991.80
2023-05-05T12:07:56.791Z,991.77
2023-05-05T12:08:56.777Z,991.79
2023-05-05T12:09:56.745Z,991.76
2023-05-05T12:10:56.719Z,991.79
2023-05-05T12:11:56.714Z,991.88
2023-05-05T12:12:56.755Z,991.81
2023-05-05T12:14:15.105Z,991.78
2023-05-05T12:14:56.775Z,991.84
2023-05-05T12:15:56.713Z,991.80
2023-05-05T12:16:56.667Z,991.72
2023-05-05T12:18:11.892Z,991.72
2023-05-05T12:18:56.650Z,991.73
2023-05-05T12:19:56.640Z,991.76
2023-05-05T12:20:56.638Z,991.71
2023-05-05T12:21:56.613Z,991.66
2023-05-05T12:22:56.597Z,991.69
2023-05-05T12:23:56.605Z,991.72
2023-05-05T12:24:56.595Z,991.69
2023-05-05T12:25:56.566Z,991.69
2023-05-05T12:26:56.568Z,991.69
2023-05-05T12:27:56.553Z,991.67
2023-05-05T12:28:56.550Z,991.73
2023-05-05T12:29:56.550Z,991.70
2023-05-05T12:30:56.569Z,991.73
2023-05-05T12:31:56.603Z,991.62
2023-05-05T12:32:56.564Z,991.65
2023-05-05T12:33:56.682Z,991.66
2023-05-05T12:34:56.489Z,991.62
2023-05-05T12:35:56.494Z,991.64
2023-05-05T12:36:56.500Z,991.61